Time,TemperatureF,DewpointF,PressureIn,WindDirection,WindDirectionDegrees,WindSpeedMPH,WindSpeedGustMPH,Humidity,HourlyPrecipIn,Conditions,Clouds,dailyrainin,SolarRadiationWatts/m^2,SoftwareType,DateUTC
2013-02-07 00:22:00,32.0,28.0,-100.00,East,82,2.0,5.0,84,0.00,,,0.00,0.000000,,2013-02-07 07:22:00,
2013-02-07 00:31:00,32.0,28.0,-100.00,East,82,2.0,5.0,84,0.00,,,0.00,0.000000,,2013-02-07 07:31:00,
2013-02-07 00:41:00,32.0,28.0,-100.00,East,82,2.0,5.0,84,0.00,,,0.00,0.000000,,2013-02-07 07:41:00,
2013-02-07 00:52:00,32.0,28.0,-100.00,East,82,2.0,5.0,84,0.00,,,0.00,0.000000,,2013-02-07 07:52:00,
2013-02-07 01:21:00,32.0,28.0,-100.00,East,90,3.0,4.0,85,0.00,,,0.00,0.000000,,2013-02-07 08:21:00,
2013-02-07 01:31:00,32.0,28.0,-100.00,East,90,3.0,4.0,85,0.00,,,0.00,0.000000,,2013-02-07 08:31:00,
2013-02-07 01:41:00,32.0,28.0,-100.00,East,90,3.0,4.0,85,0.00,,,0.00,0.000000,,2013-02-07 08:41:00,
2013-02-07 01:52:00,32.0,28.0,-100.00,East,90,3.0,4.0,85,0.00,,,0.00,0.000000,,2013-02-07 08:52:00,
2013-02-07 02:21:00,30.0,26.0,-100.00,East,87,3.0,6.0,86,0.00,,,0.00,0.000000,,2013-02-07 09:21:00,
2013-02-07 02:31:00,30.0,26.0,-100.00,East,87,3.0,6.0,86,0.00,,,0.00,0.000000,,2013-02-07 09:31:00,
2013-02-07 02:41:00,30.0,26.0,-100.00,East,87,3.0,6.0,86,0.00,,,0.00,0.000000,,2013-02-07 09:41:00,
2013-02-07 02:51:00,30.0,26.0,-100.00,East,87,3.0,6.0,86,0.00,,,0.00,0.000000,,2013-02-07 09:51:00,
2013-02-07 03:22:00,29.0,26.0,-100.00,East,94,4.0,9.0,87,0.00,,,-99.99,0.000000,,2013-02-07 10:22:00,
2013-02-07 03:31:00,29.0,26.0,-100.00,East,94,4.0,9.0,87,0.00,,,-99.99,0.000000,,2013-02-07 10:31:00,
2013-02-07 03:41:00,29.0,26.0,-100.00,East,94,4.0,9.0,87,0.00,,,-99.99,0.000000,,2013-02-07 10:41:00,
2013-02-07 03:51:00,29.0,26.0,-100.00,East,94,4.0,9.0,87,0.00,,,-99.99,0.000000,,2013-02-07 10:51:00,
2013-02-07 04:22:00,29.0,26.0,-100.00,ENE,76,2.0,8.0,89,0.00,,,0.00,0.000000,,2013-02-07 11:22:00,
2013-02-07 04:32:00,29.0,26.0,-100.00,ENE,76,2.0,8.0,89,0.00,,,0.00,0.000000,,2013-02-07 11:32:00,
2013-02-07 04:43:00,29.0,26.0,-100.00,ENE,76,2.0,8.0,89,0.00,,,0.00,0.000000,,2013-02-07 11:43:00,
2013-02-07 04:52:00,29.0,26.0,-100.00,ENE,76,2.0,8.0,89,0.00,,,0.00,0.000000,,2013-02-07 11:52:00,
2013-02-07 05:22:00,27.0,24.0,-100.00,ESE,109,3.0,7.0,88,0.00,,,0.00,0.000000,,2013-02-07 12:22:00,
2013-02-07 05:32:00,27.0,24.0,-100.00,ESE,109,3.0,7.0,88,0.00,,,0.00,0.000000,,2013-02-07 12:32:00,
2013-02-07 05:42:00,27.0,24.0,-100.00,ESE,109,3.0,7.0,88,0.00,,,0.00,0.000000,,2013-02-07 12:42:00,
2013-02-07 05:52:00,27.0,24.0,-100.00,ESE,109,3.0,7.0,88,0.00,,,0.00,0.000000,,2013-02-07 12:52:00,
2013-02-07 06:22:00,26.0,23.0,-100.00,ESE,117,4.0,6.0,89,0.00,,,0.00,0.000000,,2013-02-07 13:22:00,
2013-02-07 06:32:00,26.0,23.0,-100.00,ESE,117,4.0,6.0,89,0.00,,,0.00,0.000000,,2013-02-07 13:32:00,
2013-02-07 06:42:00,26.0,23.0,-100.00,ESE,117,4.0,6.0,89,0.00,,,0.00,0.000000,,2013-02-07 13:42:00,
2013-02-07 06:51:00,26.0,23.0,-100.00,ESE,117,4.0,6.0,89,0.00,,,0.00,0.000000,,2013-02-07 13:51:00,
2013-02-07 07:21:00,25.0,22.0,-100.00,ENE,75,4.0,7.0,90,0.00,,,-99.99,0.000000,,2013-02-07 14:21:00,
2013-02-07 07:32:00,25.0,22.0,-100.00,ENE,75,4.0,7.0,90,0.00,,,-99.99,0.000000,,2013-02-07 14:32:00,
2013-02-07 07:41:00,25.0,22.0,-100.00,ENE,75,4.0,7.0,90,0.00,,,-99.99,0.000000,,2013-02-07 14:41:00,
2013-02-07 07:52:00,25.0,22.0,-100.00,ENE,75,4.0,7.0,90,0.00,,,-99.99,0.000000,,2013-02-07 14:52:00,
2013-02-07 08:22:00,25.0,20.0,-100.00,ESE,114,1.0,7.0,82,0.00,,,0.00,0.000000,,2013-02-07 15:22:00,
2013-02-07 08:32:00,25.0,20.0,-100.00,ESE,114,1.0,7.0,82,0.00,,,0.00,0.000000,,2013-02-07 15:32:00,
2013-02-07 08:42:00,25.0,20.0,-100.00,ESE,114,1.0,7.0,82,0.00,,,0.00,0.000000,,2013-02-07 15:42:00,
2013-02-07 08:52:00,25.0,20.0,-100.00,ESE,114,1.0,7.0,82,0.00,,,0.00,0.000000,,2013-02-07 15:52:00,
2013-02-07 09:21:00,28.0,19.0,-100.00,SE,143,3.0,7.0,68,0.00,,,0.00,36.000000,,2013-02-07 16:21:00,
2013-02-07 09:31:00,28.0,19.0,-100.00,SE,143,3.0,7.0,68,0.00,,,0.00,36.000000,,2013-02-07 16:31:00,
2013-02-07 09:41:00,28.0,19.0,-100.00,SE,143,3.0,7.0,68,0.00,,,0.00,36.000000,,2013-02-07 16:41:00,
2013-02-07 09:52:00,28.0,19.0,-100.00,SE,143,3.0,7.0,68,0.00,,,0.00,36.000000,,2013-02-07 16:52:00,
2013-02-07 10:21:00,32.0,16.0,-100.00,SE,125,2.0,6.0,51,0.00,,,0.00,241.000000,,2013-02-07 17:21:00,
2013-02-07 10:31:00,32.0,16.0,-100.00,SE,125,2.0,6.0,51,0.00,,,0.00,241.000000,,2013-02-07 17:31:00,
2013-02-07 10:42:00,32.0,16.0,-100.00,SE,125,2.0,6.0,51,0.00,,,0.00,241.000000,,2013-02-07 17:42:00,
2013-02-07 10:52:00,32.0,16.0,-100.00,SE,125,2.0,6.0,51,0.00,,,0.00,241.000000,,2013-02-07 17:52:00,
2013-02-07 11:23:00,37.0,21.0,-100.00,NW,313,4.0,6.0,52,0.00,,,-99.99,460.000000,,2013-02-07 18:23:00,
2013-02-07 11:31:00,37.0,21.0,-100.00,NW,313,4.0,6.0,52,0.00,,,-99.99,460.000000,,2013-02-07 18:31:00,
2013-02-07 11:41:00,37.0,21.0,-100.00,NW,313,4.0,6.0,52,0.00,,,-99.99,460.000000,,2013-02-07 18:41:00,
2013-02-07 11:51:00,37.0,21.0,-100.00,NW,313,4.0,6.0,52,0.00,,,-99.99,460.000000,,2013-02-07 18:51:00,
2013-02-07 12:22:00,39.0,21.0,-100.00,WNW,297,3.0,8.0,49,0.00,,,0.00,641.000000,,2013-02-07 19:22:00,
2013-02-07 12:31:00,39.0,21.0,-100.00,WNW,297,3.0,8.0,49,0.00,,,0.00,641.000000,,2013-02-07 19:31:00,
2013-02-07 12:41:00,39.0,21.0,-100.00,WNW,297,3.0,8.0,49,0.00,,,0.00,641.000000,,2013-02-07 19:41:00,
2013-02-07 12:51:00,39.0,21.0,-100.00,WNW,297,3.0,8.0,49,0.00,,,0.00,641.000000,,2013-02-07 19:51:00,
2013-02-07 13:21:00,42.0,21.0,-100.00,North,4,3.0,7.0,42,0.00,,,0.00,758.000000,,2013-02-07 20:21:00,
2013-02-07 13:31:00,42.0,21.0,-100.00,North,4,3.0,7.0,42,0.00,,,0.00,758.000000,,2013-02-07 20:31:00,
2013-02-07 13:41:00,42.0,21.0,-100.00,North,4,3.0,7.0,42,0.00,,,0.00,758.000000,,2013-02-07 20:41:00,
2013-02-07 13:52:00,42.0,21.0,-100.00,North,4,3.0,7.0,42,0.00,,,0.00,758.000000,,2013-02-07 20:52:00,
2013-02-07 14:21:00,44.0,17.0,-100.00,WNW,301,2.0,7.0,34,0.00,,,0.00,803.000000,,2013-02-07 21:21:00,
2013-02-07 14:31:00,44.0,17.0,-100.00,WNW,301,2.0,7.0,34,0.00,,,0.00,803.000000,,2013-02-07 21:31:00,
2013-02-07 14:42:00,44.0,17.0,-100.00,WNW,301,2.0,7.0,34,0.00,,,0.00,803.000000,,2013-02-07 21:42:00,
2013-02-07 14:51:00,44.0,17.0,-100.00,WNW,301,2.0,7.0,34,0.00,,,0.00,803.000000,,2013-02-07 21:51:00,
2013-02-07 15:21:00,49.0,19.0,-100.00,North,9,3.0,7.0,30,0.00,,,0.00,770.000000,,2013-02-07 22:21:00,
2013-02-07 15:31:00,49.0,19.0,-100.00,North,9,3.0,7.0,30,0.00,,,0.00,770.000000,,2013-02-07 22:31:00,
2013-02-07 15:42:00,49.0,19.0,-100.00,North,9,3.0,7.0,30,0.00,,,0.00,770.000000,,2013-02-07 22:42:00,
2013-02-07 15:51:00,49.0,19.0,-100.00,North,9,3.0,7.0,30,0.00,,,0.00,770.000000,,2013-02-07 22:51:00,
2013-02-07 16:21:00,50.0,18.0,-100.00,NNW,342,3.0,8.0,28,0.00,,,0.00,664.000000,,2013-02-07 23:21:00,
2013-02-07 16:32:00,50.0,18.0,-100.00,NNW,342,3.0,8.0,28,0.00,,,0.00,664.000000,,2013-02-07 23:32:00,
2013-02-07 16:41:00,50.0,18.0,-100.00,NNW,342,3.0,8.0,28,0.00,,,0.00,664.000000,,2013-02-07 23:41:00,
2013-02-07 16:52:00,50.0,18.0,-100.00,NNW,342,3.0,8.0,28,0.00,,,0.00,664.000000,,2013-02-07 23:52:00,
2013-02-07 17:21:00,50.0,20.0,-100.00,NNE,28,2.0,7.0,30,0.00,,,0.00,491.000000,,2013-02-08 00:21:00,
2013-02-07 17:31:00,50.0,20.0,-100.00,NNE,28,2.0,7.0,30,0.00,,,0.00,491.000000,,2013-02-08 00:31:00,
2013-02-07 17:41:00,50.0,20.0,-100.00,NNE,28,2.0,7.0,30,0.00,,,0.00,491.000000,,2013-02-08 00:41:00,
2013-02-07 17:52:00,50.0,20.0,-100.00,NNE,28,2.0,7.0,30,0.00,,,0.00,491.000000,,2013-02-08 00:52:00,
2013-02-07 19:21:00,42.0,19.0,-100.00,NNE,19,2.0,5.0,40,-99.99,,,0.00,54.000000,,2013-02-08 02:21:00,
2013-02-07 19:31:00,42.0,19.0,-100.00,NNE,19,2.0,5.0,40,-99.99,,,0.00,54.000000,,2013-02-08 02:31:00,
2013-02-07 19:42:00,42.0,19.0,-100.00,NNE,19,2.0,5.0,40,-99.99,,,0.00,54.000000,,2013-02-08 02:42:00,
2013-02-07 19:52:00,42.0,19.0,-100.00,NNE,19,2.0,5.0,40,-99.99,,,0.00,54.000000,,2013-02-08 02:52:00,
2013-02-07 20:22:00,41.0,29.0,-100.00,East,85,4.0,4.0,61,0.00,,,0.00,0.000000,,2013-02-08 03:22:00,
2013-02-07 20:32:00,41.0,29.0,-100.00,East,85,4.0,4.0,61,0.00,,,0.00,0.000000,,2013-02-08 03:32:00,
2013-02-07 20:41:00,41.0,29.0,-100.00,East,85,4.0,4.0,61,0.00,,,0.00,0.000000,,2013-02-08 03:41:00,
2013-02-07 20:51:00,41.0,29.0,-100.00,East,85,4.0,4.0,61,0.00,,,0.00,0.000000,,2013-02-08 03:51:00,
2013-02-07 21:21:00,33.0,23.0,-100.00,ESE,106,2.0,7.0,65,0.00,,,0.00,0.000000,,2013-02-08 04:21:00,
2013-02-07 21:32:00,33.0,23.0,-100.00,ESE,106,2.0,7.0,65,0.00,,,0.00,0.000000,,2013-02-08 04:32:00,
2013-02-07 21:41:00,33.0,23.0,-100.00,ESE,106,2.0,7.0,65,0.00,,,0.00,0.000000,,2013-02-08 04:41:00,
2013-02-07 21:51:00,33.0,23.0,-100.00,ESE,106,2.0,7.0,65,0.00,,,0.00,0.000000,,2013-02-08 04:51:00,
2013-02-07 22:22:00,33.0,25.0,-100.00,ESE,102,6.0,7.0,71,0.00,,,0.00,0.000000,,2013-02-08 05:22:00,
2013-02-07 22:31:00,33.0,25.0,-100.00,ESE,102,6.0,7.0,71,0.00,,,0.00,0.000000,,2013-02-08 05:31:00,
2013-02-07 22:41:00,33.0,25.0,-100.00,ESE,102,6.0,7.0,71,0.00,,,0.00,0.000000,,2013-02-08 05:41:00,
2013-02-07 22:52:00,33.0,25.0,-100.00,ESE,102,6.0,7.0,71,0.00,,,0.00,0.000000,,2013-02-08 05:52:00,
2013-02-07 23:21:00,31.0,23.0,-100.00,East,101,5.0,8.0,72,0.00,,,0.00,0.000000,,2013-02-08 06:21:00,
2013-02-07 23:31:00,31.0,23.0,-100.00,East,101,5.0,8.0,72,0.00,,,0.00,0.000000,,2013-02-08 06:31:00,
2013-02-07 23:41:00,31.0,23.0,-100.00,East,101,5.0,8.0,72,0.00,,,0.00,0.000000,,2013-02-08 06:41:00,
2013-02-07 23:51:00,31.0,23.0,-100.00,East,101,5.0,8.0,72,0.00,,,0.00,0.000000,,2013-02-08 06:51:00,